sensor_id;sensor_type;location;lat;lon;timestamp;pressure;altitude;pressure_sealevel;temperature;humidity
77263;BME280;66373;52.334;4.806;2023-03-01T00:02:05;103176.44;;;16.67;45.74
77263;BME280;66373;52.334;4.806;2023-03-01T00:04:33;103047.66;;;15.98;45.72
77263;BME280;66373;52.334;4.806;2023-03-01T00:07:01;103109.84;;;16.31;45.52
77263;BME280;66373;52.334;4.806;2023-03-01T00:09:33;103055.53;;;16.03;45.48
77263;BME280;66373;52.334;4.806;2023-03-01T00:12:02;103119.38;;;16.32;45.40
77263;BME280;66373;52.334;4.806;2023-03-01T00:14:29;103101.00;;;16.23;45.42
77263;BME280;66373;52.334;4.806;2023-03-01T00:16:57;103028.31;;;15.85;45.41
77263;BME280;66373;52.334;4.806;2023-03-01T00:19:25;103124.91;;;16.47;45.46
77263;BME280;66373;52.334;4.806;2023-03-01T00:21:53;103048.59;;;16.02;45.60
77263;BME280;66373;52.334;4.806;2023-03-01T00:24:23;103165.22;;;16.68;45.64
77263;BME280;66373;52.334;4.806;2023-03-01T00:26:53;103143.44;;;16.62;45.52
77263;BME280;66373;52.334;4.806;2023-03-01T00:29:24;103130.28;;;16.55;45.59
77263;BME280;66373;52.334;4.806;2023-03-01T00:31:52;103147.75;;;16.62;45.66
77263;BME280;66373;52.334;4.806;2023-03-01T00:34:19;103072.22;;;16.14;45.53
77263;BME280;66373;52.334;4.806;2023-03-01T00:36:47;103079.28;;;16.19;45.50
77263;BME280;66373;52.334;4.806;2023-03-01T00:39:15;103068.75;;;16.13;45.39
77263;BME280;66373;52.334;4.806;2023-03-01T00:41:43;103067.81;;;16.10;45.43
77263;BME280;66373;52.334;4.806;2023-03-01T00:44:10;103142.50;;;16.59;45.31
77263;BME280;66373;52.334;4.806;2023-03-01T00:46:43;103152.88;;;16.59;45.28
77263;BME280;66373;52.334;4.806;2023-03-01T00:49:11;103082.91;;;16.27;45.33
77263;BME280;66373;52.334;4.806;2023-03-01T00:51:38;103144.28;;;16.61;45.36
77263;BME280;66373;52.334;4.806;2023-03-01T00:54:08;103104.75;;;16.37;45.53
77263;BME280;66373;52.334;4.806;2023-03-01T00:56:36;103124.28;;;16.57;45.26
77263;BME280;66373;52.334;4.806;2023-03-01T00:59:03;103039.22;;;16.08;45.13
77263;BME280;66373;52.334;4.806;2023-03-01T01:01:31;103142.69;;;16.68;45.21
77263;BME280;66373;52.334;4.806;2023-03-01T01:04:02;103039.31;;;16.13;45.21
77263;BME280;66373;52.334;4.806;2023-03-01T01:06:32;103091.88;;;16.42;45.03
77263;BME280;66373;52.334;4.806;2023-03-01T01:09:02;103042.75;;;16.12;45.17
77263;BME280;66373;52.334;4.806;2023-03-01T01:11:30;103123.47;;;16.60;45.17
77263;BME280;66373;52.334;4.806;2023-03-01T01:13:58;103085.69;;;16.35;45.27
77263;BME280;66373;52.334;4.806;2023-03-01T01:16:26;103073.38;;;16.26;45.15
77263;BME280;66373;52.334;4.806;2023-03-01T01:18:55;103130.44;;;16.62;44.96
77263;BME280;66373;52.334;4.806;2023-03-01T01:21:24;103063.72;;;16.21;45.02
77263;BME280;66373;52.334;4.806;2023-03-01T01:23:53;103116.41;;;16.54;45.08
77263;BME280;66373;52.334;4.806;2023-03-01T01:26:22;103076.22;;;16.39;45.07
77263;BME280;66373;52.334;4.806;2023-03-01T01:28:50;103092.88;;;16.48;45.10
77263;BME280;66373;52.334;4.806;2023-03-01T01:31:18;103013.19;;;16.05;44.87
77263;BME280;66373;52.334;4.806;2023-03-01T01:33:46;103099.13;;;16.56;44.87
77263;BME280;66373;52.334;4.806;2023-03-01T01:36:13;103027.38;;;16.21;44.89
77263;BME280;66373;52.334;4.806;2023-03-01T01:38:42;103115.84;;;16.68;44.91
77263;BME280;66373;52.334;4.806;2023-03-01T01:41:11;103007.44;;;16.20;44.92
77263;BME280;66373;52.334;4.806;2023-03-01T01:43:42;103001.22;;;16.13;44.95
77263;BME280;66373;52.334;4.806;2023-03-01T01:46:18;103067.94;;;16.56;44.89
77263;BME280;66373;52.334;4.806;2023-03-01T01:48:52;103063.41;;;16.46;44.81
77263;BME280;66373;52.334;4.806;2023-03-01T01:51:23;103051.97;;;16.38;44.80
77263;BME280;66373;52.334;4.806;2023-03-01T01:53:57;103073.94;;;16.52;44.80
77263;BME280;66373;52.334;4.806;2023-03-01T01:56:26;103064.31;;;16.48;44.80
77263;BME280;66373;52.334;4.806;2023-03-01T01:58:55;103003.91;;;16.16;44.90
77263;BME280;66373;52.334;4.806;2023-03-01T02:01:22;103096.72;;;16.66;44.84
77263;BME280;66373;52.334;4.806;2023-03-01T02:03:50;102993.31;;;16.06;44.84
77263;BME280;66373;52.334;4.806;2023-03-01T02:06:21;103087.06;;;16.58;44.89
77263;BME280;66373;52.334;4.806;2023-03-01T02:08:59;103029.09;;;16.20;44.62
77263;BME280;66373;52.334;4.806;2023-03-01T02:11:29;103100.19;;;16.65;44.90
77263;BME280;66373;52.334;4.806;2023-03-01T02:13:57;103006.41;;;16.12;44.72
77263;BME280;66373;52.334;4.806;2023-03-01T02:16:25;103064.25;;;16.45;44.49
77263;BME280;66373;52.334;4.806;2023-03-01T02:18:53;103044.97;;;16.34;44.61
77263;BME280;66373;52.334;4.806;2023-03-01T02:21:30;103082.75;;;16.60;44.63
77263;BME280;66373;52.334;4.806;2023-03-01T02:24:08;103084.59;;;16.65;44.67
77263;BME280;66373;52.334;4.806;2023-03-01T02:26:41;103038.28;;;16.47;44.62
77263;BME280;66373;52.334;4.806;2023-03-01T02:29:11;103007.50;;;16.23;44.60
77263;BME280;66373;52.334;4.806;2023-03-01T02:31:39;103055.84;;;16.57;44.64
77263;BME280;66373;52.334;4.806;2023-03-01T02:34:13;103025.13;;;16.36;44.48
77263;BME280;66373;52.334;4.806;2023-03-01T02:36:43;103056.72;;;16.57;44.48
77263;BME280;66373;52.334;4.806;2023-03-01T02:39:15;102976.03;;;16.08;44.56
77263;BME280;66373;52.334;4.806;2023-03-01T02:41:47;102995.41;;;16.23;44.52
77263;BME280;66373;52.334;4.806;2023-03-01T02:44:16;102997.13;;;16.23;44.61
77263;BME280;66373;52.334;4.806;2023-03-01T02:46:45;103040.06;;;16.48;44.59
77263;BME280;66373;52.334;4.806;2023-03-01T02:49:20;103010.38;;;16.35;44.30
77263;BME280;66373;52.334;4.806;2023-03-01T02:51:58;102954.34;;;16.04;44.57
77263;BME280;66373;52.334;4.806;2023-03-01T02:54:34;102976.28;;;16.20;44.48
77263;BME280;66373;52.334;4.806;2023-03-01T02:57:03;103034.19;;;16.56;44.58
77263;BME280;66373;52.334;4.806;2023-03-01T02:59:34;102966.66;;;16.16;44.44
77263;BME280;66373;52.334;4.806;2023-03-01T03:02:07;103039.50;;;16.62;44.58
77263;BME280;66373;52.334;4.806;2023-03-01T03:04:45;102915.94;;;15.89;44.35
77263;BME280;66373;52.334;4.806;2023-03-01T03:07:13;103024.47;;;16.48;44.57
77263;BME280;66373;52.334;4.806;2023-03-01T03:09:40;103021.97;;;16.52;44.55
77263;BME280;66373;52.334;4.806;2023-03-01T03:12:07;103013.31;;;16.53;44.60
77263;BME280;66373;52.334;4.806;2023-03-01T03:14:37;102965.91;;;16.20;44.18
77263;BME280;66373;52.334;4.806;2023-03-01T03:17:04;102938.75;;;16.04;44.63
77263;BME280;66373;52.334;4.806;2023-03-01T03:19:32;102916.97;;;15.98;44.62
77263;BME280;66373;52.334;4.806;2023-03-01T03:21:59;103001.06;;;16.46;44.24
77263;BME280;66373;52.334;4.806;2023-03-01T03:24:26;102931.00;;;16.06;44.42
77263;BME280;66373;52.334;4.806;2023-03-01T03:27:03;103017.63;;;16.51;44.32
77263;BME280;66373;52.334;4.806;2023-03-01T03:29:31;102950.38;;;16.23;44.42
77263;BME280;66373;52.334;4.806;2023-03-01T03:32:00;102922.34;;;16.05;44.30
77263;BME280;66373;52.334;4.806;2023-03-01T03:34:27;102980.09;;;16.37;44.37
77263;BME280;66373;52.334;4.806;2023-03-01T03:36:56;102914.41;;;15.99;44.38
77263;BME280;66373;52.334;4.806;2023-03-01T03:39:26;103008.22;;;16.58;44.39
77263;BME280;66373;52.334;4.806;2023-03-01T03:41:53;103007.34;;;16.57;44.42
77263;BME280;66373;52.334;4.806;2023-03-01T03:44:20;103020.41;;;16.60;44.30
77263;BME280;66373;52.334;4.806;2023-03-01T03:46:48;102954.75;;;16.25;44.10
77263;BME280;66373;52.334;4.806;2023-03-01T03:49:17;102897.91;;;15.95;44.19
77263;BME280;66373;52.334;4.806;2023-03-01T03:51:45;102969.66;;;16.34;44.09
77263;BME280;66373;52.334;4.806;2023-03-01T03:54:13;102974.09;;;16.41;44.07
77263;BME280;66373;52.334;4.806;2023-03-01T03:56:40;102974.88;;;16.37;44.18
77263;BME280;66373;52.334;4.806;2023-03-01T03:59:07;102914.44;;;16.01;44.28
77263;BME280;66373;52.334;4.806;2023-03-01T04:01:37;102969.47;;;16.25;44.30
77263;BME280;66373;52.334;4.806;2023-03-01T04:04:04;103006.31;;;16.49;44.06
77263;BME280;66373;52.334;4.806;2023-03-01T04:06:35;102996.59;;;16.41;44.17
77263;BME280;66373;52.334;4.806;2023-03-01T04:09:02;102927.38;;;15.98;44.12
77263;BME280;66373;52.334;4.806;2023-03-01T04:11:29;102952.84;;;16.17;44.24
77263;BME280;66373;52.334;4.806;2023-03-01T04:13:57;102916.03;;;15.94;43.99
77263;BME280;66373;52.334;4.806;2023-03-01T04:16:25;103004.63;;;16.51;43.94
77263;BME280;66373;52.334;4.806;2023-03-01T04:18:53;103005.53;;;16.53;44.04
77263;BME280;66373;52.334;4.806;2023-03-01T04:21:21;102923.31;;;16.12;44.02
77263;BME280;66373;52.334;4.806;2023-03-01T04:23:50;102947.75;;;16.21;43.83
77263;BME280;66373;52.334;4.806;2023-03-01T04:26:19;102983.72;;;16.45;43.72
77263;BME280;66373;52.334;4.806;2023-03-01T04:28:47;102893.44;;;15.88;44.06
77263;BME280;66373;52.334;4.806;2023-03-01T04:31:18;103005.47;;;16.50;44.10
77263;BME280;66373;52.334;4.806;2023-03-01T04:33:48;102978.38;;;16.39;43.87
77263;BME280;66373;52.334;4.806;2023-03-01T04:36:20;102916.28;;;16.05;43.98
77263;BME280;66373;52.334;4.806;2023-03-01T04:38:49;102930.19;;;16.08;43.97
77263;BME280;66373;52.334;4.806;2023-03-01T04:41:19;102921.47;;;16.05;44.02
77263;BME280;66373;52.334;4.806;2023-03-01T04:43:47;102890.16;;;15.97;43.87
77263;BME280;66373;52.334;4.806;2023-03-01T04:46:17;102973.28;;;16.44;44.04
77263;BME280;66373;52.334;4.806;2023-03-01T04:48:45;102968.94;;;16.43;44.03
77263;BME280;66373;52.334;4.806;2023-03-01T04:51:13;102932.97;;;16.19;43.89
77263;BME280;66373;52.334;4.806;2023-03-01T04:53:42;102971.63;;;16.47;43.98
77263;BME280;66373;52.334;4.806;2023-03-01T04:56:12;102973.19;;;16.39;43.88
77263;BME280;66373;52.334;4.806;2023-03-01T04:58:41;102948.75;;;16.28;43.97
77263;BME280;66373;52.334;4.806;2023-03-01T05:01:09;102915.44;;;16.06;43.67
77263;BME280;66373;52.334;4.806;2023-03-01T05:03:41;102960.16;;;16.35;43.84
77263;BME280;66373;52.334;4.806;2023-03-01T05:06:09;102983.78;;;16.48;43.86
77263;BME280;66373;52.334;4.806;2023-03-01T05:08:38;102963.50;;;16.29;43.89
77263;BME280;66373;52.334;4.806;2023-03-01T05:11:06;102908.47;;;16.05;43.86
77263;BME280;66373;52.334;4.806;2023-03-01T05:13:36;102966.25;;;16.38;43.75
77263;BME280;66373;52.334;4.806;2023-03-01T05:16:06;102903.28;;;16.05;43.63
77263;BME280;66373;52.334;4.806;2023-03-01T05:18:36;102909.44;;;16.11;43.71
77263;BME280;66373;52.334;4.806;2023-03-01T05:21:06;102897.31;;;16.09;43.59
77263;BME280;66373;52.334;4.806;2023-03-01T05:23:34;102939.41;;;16.38;43.81
77263;BME280;66373;52.334;4.806;2023-03-01T05:26:02;102924.41;;;16.23;43.71
77263;BME280;66373;52.334;4.806;2023-03-01T05:28:30;102933.31;;;16.37;43.61
77263;BME280;66373;52.334;4.806;2023-03-01T05:30:59;102953.44;;;16.47;43.71
77263;BME280;66373;52.334;4.806;2023-03-01T05:33:30;102946.56;;;16.49;43.79
77263;BME280;66373;52.334;4.806;2023-03-01T05:35:59;102891.44;;;16.19;43.95
77263;BME280;66373;52.334;4.806;2023-03-01T05:38:27;102872.19;;;16.08;43.80
77263;BME280;66373;52.334;4.806;2023-03-01T05:40:54;102882.81;;;16.20;43.84
77263;BME280;66373;52.334;4.806;2023-03-01T05:43:22;102849.56;;;16.01;43.82
77263;BME280;66373;52.334;4.806;2023-03-01T05:45:50;102940.53;;;16.50;43.87
77263;BME280;66373;52.334;4.806;2023-03-01T05:48:19;102854.75;;;16.01;44.00
77263;BME280;66373;52.334;4.806;2023-03-01T05:50:46;102921.25;;;16.39;44.01
77263;BME280;66373;52.334;4.806;2023-03-01T05:53:16;102928.31;;;16.46;44.31
77263;BME280;66373;52.334;4.806;2023-03-01T05:55:44;102924.00;;;16.47;44.43
77263;BME280;66373;52.334;4.806;2023-03-01T05:58:15;102892.38;;;16.22;44.51
77263;BME280;66373;52.334;4.806;2023-03-01T06:00:43;102928.31;;;16.46;44.67
77263;BME280;66373;52.334;4.806;2023-03-01T06:03:12;102846.97;;;16.01;44.61
77263;BME280;66373;52.334;4.806;2023-03-01T06:05:42;102881.88;;;16.16;44.75
77263;BME280;66373;52.334;4.806;2023-03-01T06:08:11;102838.09;;;15.91;44.82
77263;BME280;66373;52.334;4.806;2023-03-01T06:10:38;102924.75;;;16.41;45.09
77263;BME280;66373;52.334;4.806;2023-03-01T06:13:06;102922.06;;;16.35;44.96
77263;BME280;66373;52.334;4.806;2023-03-01T06:15:33;102919.47;;;16.35;45.19
77263;BME280;66373;52.334;4.806;2023-03-01T06:18:01;102879.28;;;16.18;45.32
77263;BME280;66373;52.334;4.806;2023-03-01T06:20:29;102863.50;;;16.06;45.41
77263;BME280;66373;52.334;4.806;2023-03-01T06:22:58;102849.56;;;16.01;45.33
77263;BME280;66373;52.334;4.806;2023-03-01T06:25:27;102934.31;;;16.44;45.46
77263;BME280;66373;52.334;4.806;2023-03-01T06:27:55;102817.19;;;15.82;45.69
77263;BME280;66373;52.334;4.806;2023-03-01T06:30:24;102877.56;;;16.18;45.67
77263;BME280;66373;52.334;4.806;2023-03-01T06:32:52;102921.31;;;16.42;45.76
77263;BME280;66373;52.334;4.806;2023-03-01T06:35:26;102836.44;;;15.94;45.55
77263;BME280;66373;52.334;4.806;2023-03-01T06:37:55;102847.81;;;16.00;45.53
77263;BME280;66373;52.334;4.806;2023-03-01T06:40:25;102858.19;;;16.00;45.69
77263;BME280;66373;52.334;4.806;2023-03-01T06:42:53;102848.69;;;16.00;45.63
77263;BME280;66373;52.334;4.806;2023-03-01T06:45:20;102908.22;;;16.36;45.37
77263;BME280;66373;52.334;4.806;2023-03-01T06:47:48;102909.94;;;16.34;45.41
77263;BME280;66373;52.334;4.806;2023-03-01T06:50:16;102875.72;;;16.13;45.51
77263;BME280;66373;52.334;4.806;2023-03-01T06:52:44;102836.28;;;15.87;45.53
77263;BME280;66373;52.334;4.806;2023-03-01T06:55:11;102858.19;;;16.00;45.47
77263;BME280;66373;52.334;4.806;2023-03-01T06:57:40;102912.53;;;16.34;45.54
77263;BME280;66373;52.334;4.806;2023-03-01T07:00:09;102926.41;;;16.36;45.64
77263;BME280;66373;52.334;4.806;2023-03-01T07:02:36;102938.59;;;16.40;45.61
77263;BME280;66373;52.334;4.806;2023-03-01T07:05:04;102886.91;;;16.07;45.60
77263;BME280;66373;52.334;4.806;2023-03-01T07:07:32;102858.06;;;15.93;45.54
77263;BME280;66373;52.334;4.806;2023-03-01T07:09:59;102910.56;;;16.22;45.72
77263;BME280;66373;52.334;4.806;2023-03-01T07:12:26;102884.34;;;16.09;45.62
77263;BME280;66373;52.334;4.806;2023-03-01T07:14:55;102844.03;;;15.85;45.53
77263;BME280;66373;52.334;4.806;2023-03-01T07:17:22;102862.34;;;15.91;45.74
77263;BME280;66373;52.334;4.806;2023-03-01T07:19:49;102852.72;;;15.86;45.44
77263;BME280;66373;52.334;4.806;2023-03-01T07:22:16;102837.94;;;15.82;45.44
77263;BME280;66373;52.334;4.806;2023-03-01T07:24:43;102849.22;;;15.82;45.48
77263;BME280;66373;52.334;4.806;2023-03-01T07:27:10;102942.00;;;16.36;45.79
77263;BME280;66373;52.334;4.806;2023-03-01T07:29:37;102868.59;;;16.01;45.61
77263;BME280;66373;52.334;4.806;2023-03-01T07:32:07;102852.72;;;15.84;45.69
77263;BME280;66373;52.334;4.806;2023-03-01T07:34:34;102873.75;;;16.00;45.54
77263;BME280;66373;52.334;4.806;2023-03-01T07:37:01;102944.59;;;16.38;45.41
77263;BME280;66373;52.334;4.806;2023-03-01T07:39:29;102941.13;;;16.36;45.72
77263;BME280;66373;52.334;4.806;2023-03-01T07:41:56;102856.09;;;15.80;45.67
77263;BME280;66373;52.334;4.806;2023-03-01T07:44:23;102878.81;;;15.93;45.61
77263;BME280;66373;52.334;4.806;2023-03-01T07:46:50;102954.16;;;16.40;45.54
77263;BME280;66373;52.334;4.806;2023-03-01T07:49:23;102892.06;;;16.06;45.56
77263;BME280;66373;52.334;4.806;2023-03-01T07:51:52;102915.72;;;16.21;45.54
77263;BME280;66373;52.334;4.806;2023-03-01T07:54:19;102940.25;;;16.35;45.62
77263;BME280;66373;52.334;4.806;2023-03-01T07:56:51;102922.72;;;16.25;45.57
77263;BME280;66373;52.334;4.806;2023-03-01T07:59:20;102884.28;;;16.06;45.63
77263;BME280;66373;52.334;4.806;2023-03-01T08:01:49;102868.56;;;16.00;45.60
77263;BME280;66373;52.334;4.806;2023-03-01T08:04:16;102935.09;;;16.38;45.55
77263;BME280;66373;52.334;4.806;2023-03-01T08:06:44;102901.75;;;16.16;45.63
77263;BME280;66373;52.334;4.806;2023-03-01T08:09:11;102861.56;;;15.95;45.60
77263;BME280;66373;52.334;4.806;2023-03-01T08:11:38;102892.19;;;16.13;45.41
77263;BME280;66373;52.334;4.806;2023-03-01T08:14:06;102858.84;;;15.89;45.33
77263;BME280;66373;52.334;4.806;2023-03-01T08:16:36;102876.50;;;16.07;45.50
77263;BME280;66373;52.334;4.806;2023-03-01T08:19:16;102875.63;;;16.07;45.62
77263;BME280;66373;52.334;4.806;2023-03-01T08:22:03;102836.25;;;15.85;45.58
77263;BME280;66373;52.334;4.806;2023-03-01T08:24:42;102868.69;;;16.06;45.17
77263;BME280;66373;52.334;4.806;2023-03-01T08:27:10;102927.28;;;16.37;45.53
77263;BME280;66373;52.334;4.806;2023-03-01T08:29:46;102874.03;;;16.15;45.39
77263;BME280;66373;52.334;4.806;2023-03-01T08:32:15;102811.13;;;15.81;45.36
77263;BME280;66373;52.334;4.806;2023-03-01T08:34:48;102850.59;;;16.09;45.39
77263;BME280;66373;52.334;4.806;2023-03-01T08:37:25;102867.97;;;16.14;45.35
77263;BME280;66373;52.334;4.806;2023-03-01T08:39:53;102904.84;;;16.42;45.46
77263;BME280;66373;52.334;4.806;2023-03-01T08:42:21;102859.34;;;16.15;45.41
77263;BME280;66373;52.334;4.806;2023-03-01T08:44:49;102862.78;;;16.14;45.43
77263;BME280;66373;52.334;4.806;2023-03-01T08:47:16;102842.75;;;16.06;45.32
77263;BME280;66373;52.334;4.806;2023-03-01T08:49:46;102912.72;;;16.46;45.55
77263;BME280;66373;52.334;4.806;2023-03-01T08:52:29;102804.34;;;15.89;45.32
77263;BME280;66373;52.334;4.806;2023-03-01T08:55:05;102911.88;;;16.47;45.36
77263;BME280;66373;52.334;4.806;2023-03-01T08:57:38;102809.53;;;15.89;45.26
77263;BME280;66373;52.334;4.806;2023-03-01T09:00:07;102914.53;;;16.50;45.46
77263;BME280;66373;52.334;4.806;2023-03-01T09:02:35;102865.66;;;16.28;45.32
77263;BME280;66373;52.334;4.806;2023-03-01T09:05:03;102869.03;;;16.24;45.54
77263;BME280;66373;52.334;4.806;2023-03-01T09:07:33;102909.34;;;16.50;45.27
77263;BME280;66373;52.334;4.806;2023-03-01T09:10:01;102843.81;;;16.18;45.41
77263;BME280;66373;52.334;4.806;2023-03-01T09:12:28;102793.97;;;15.89;45.33
77263;BME280;66373;52.334;4.806;2023-03-01T09:14:57;102832.44;;;16.12;45.42
77263;BME280;66373;52.334;4.806;2023-03-01T09:17:24;102804.53;;;15.99;45.52
77263;BME280;66373;52.334;4.806;2023-03-01T09:19:52;102845.63;;;16.22;45.27
77263;BME280;66373;52.334;4.806;2023-03-01T09:22:20;102913.16;;;16.69;45.45
77263;BME280;66373;52.334;4.806;2023-03-01T09:24:49;102932.22;;;16.70;45.36
77263;BME280;66373;52.334;4.806;2023-03-01T09:27:17;102899.84;;;16.51;45.63
77263;BME280;66373;52.334;4.806;2023-03-01T09:29:44;102834.22;;;16.14;45.35
77263;BME280;66373;52.334;4.806;2023-03-01T09:32:12;102874.56;;;16.42;45.56
77263;BME280;66373;52.334;4.806;2023-03-01T09:34:39;102902.56;;;16.58;45.33
77263;BME280;66373;52.334;4.806;2023-03-01T09:37:20;102911.41;;;16.68;45.55
77263;BME280;66373;52.334;4.806;2023-03-01T09:39:49;102892.19;;;16.58;45.47
77263;BME280;66373;52.334;4.806;2023-03-01T09:42:16;102834.53;;;16.29;45.54
77263;BME280;66373;52.334;4.806;2023-03-01T09:44:49;102781.22;;;16.02;45.64
77263;BME280;66373;52.334;4.806;2023-03-01T09:47:20;102880.03;;;16.57;45.56
77263;BME280;66373;52.334;4.806;2023-03-01T09:49:57;102801.41;;;16.18;45.40
77263;BME280;66373;52.334;4.806;2023-03-01T09:52:32;102854.72;;;16.46;45.38
77263;BME280;66373;52.334;4.806;2023-03-01T09:55:10;102873.16;;;16.59;45.39
77263;BME280;66373;52.334;4.806;2023-03-01T09:57:46;102817.16;;;16.27;45.41
77263;BME280;66373;52.334;4.806;2023-03-01T10:00:31;102873.97;;;16.57;45.30
77263;BME280;66373;52.334;4.806;2023-03-01T10:03:10;102838.19;;;16.42;45.50
77263;BME280;66373;52.334;4.806;2023-03-01T10:05:45;102816.34;;;16.29;45.59
77263;BME280;66373;52.334;4.806;2023-03-01T10:08:26;102857.53;;;16.58;45.63
77263;BME280;66373;52.334;4.806;2023-03-01T10:10:58;102878.47;;;16.66;45.47
77263;BME280;66373;52.334;4.806;2023-03-01T10:13:33;102833.06;;;16.45;45.39
77263;BME280;66373;52.334;4.806;2023-03-01T10:16:05;102811.16;;;16.29;45.54
77263;BME280;66373;52.334;4.806;2023-03-01T10:18:37;102842.63;;;16.48;45.38
77263;BME280;66373;52.334;4.806;2023-03-01T10:21:14;102805.94;;;16.28;45.34
77263;BME280;66373;52.334;4.806;2023-03-01T10:23:43;102887.28;;;16.74;45.74
77263;BME280;66373;52.334;4.806;2023-03-01T10:26:29;102820.91;;;16.44;45.42
77263;BME280;66373;52.334;4.806;2023-03-01T10:29:02;102765.81;;;16.12;45.55
77263;BME280;66373;52.334;4.806;2023-03-01T10:31:38;102862.13;;;16.73;45.60
77263;BME280;66373;52.334;4.806;2023-03-01T10:34:14;102884.03;;;16.87;45.57
77263;BME280;66373;52.334;4.806;2023-03-01T10:36:48;102894.44;;;16.90;45.69
77263;BME280;66373;52.334;4.806;2023-03-01T10:39:18;102851.75;;;16.74;45.44
77263;BME280;66373;52.334;4.806;2023-03-01T10:41:55;102831.75;;;16.70;45.52
77263;BME280;66373;52.334;4.806;2023-03-01T10:44:38;102853.75;;;16.92;45.52
77263;BME280;66373;52.334;4.806;2023-03-01T10:47:14;102801.25;;;16.58;45.68
77263;BME280;66373;52.334;4.806;2023-03-01T10:49:52;102784.66;;;16.50;45.42
77263;BME280;66373;52.334;4.806;2023-03-01T10:52:21;102834.63;;;16.85;45.47
77263;BME280;66373;52.334;4.806;2023-03-01T10:54:55;102793.44;;;16.58;45.49
77263;BME280;66373;52.334;4.806;2023-03-01T10:57:40;102846.81;;;16.91;45.38
77263;BME280;66373;52.334;4.806;2023-03-01T11:00:17;102819.75;;;16.77;45.44
77263;BME280;66373;52.334;4.806;2023-03-01T11:02:48;102848.53;;;16.90;45.16
77263;BME280;66373;52.334;4.806;2023-03-01T11:05:24;102779.63;;;16.59;45.36
77263;BME280;66373;52.334;4.806;2023-03-01T11:07:58;102748.97;;;16.40;45.58
77263;BME280;66373;52.334;4.806;2023-03-01T11:10:27;102846.09;;;17.00;45.42
77263;BME280;66373;52.334;4.806;2023-03-01T11:13:08;102815.56;;;16.85;45.59
77263;BME280;66373;52.334;4.806;2023-03-01T11:15:58;102781.47;;;16.67;45.42
77263;BME280;66373;52.334;4.806;2023-03-01T11:18:26;102711.59;;;16.29;45.38
77263;BME280;66373;52.334;4.806;2023-03-01T11:20:58;102761.41;;;16.58;45.33
77263;BME280;66373;52.334;4.806;2023-03-01T11:23:29;102832.25;;;17.02;45.41
77263;BME280;66373;52.334;4.806;2023-03-01T11:26:02;102716.88;;;16.35;45.34
77263;BME280;66373;52.334;4.806;2023-03-01T11:28:37;102758.97;;;16.69;45.28
77263;BME280;66373;52.334;4.806;2023-03-01T11:31:10;102824.56;;;17.08;45.12
77263;BME280;66373;52.334;4.806;2023-03-01T11:33:44;102766.94;;;16.79;45.09
77263;BME280;66373;52.334;4.806;2023-03-01T11:36:21;102683.16;;;16.38;45.26
77263;BME280;66373;52.334;4.806;2023-03-01T11:38:53;102683.13;;;16.35;45.44
77263;BME280;66373;52.334;4.806;2023-03-01T11:41:25;102733.88;;;16.69;45.30
77263;BME280;66373;52.334;4.806;2023-03-01T11:43:56;102761.03;;;16.88;45.16
77263;BME280;66373;52.334;4.806;2023-03-01T11:46:38;102698.13;;;16.54;45.32
77263;BME280;66373;52.334;4.806;2023-03-01T11:49:33;102750.56;;;16.85;44.90
77263;BME280;66373;52.334;4.806;2023-03-01T11:52:15;102766.31;;;16.97;45.24
77263;BME280;66373;52.334;4.806;2023-03-01T11:54:55;102718.38;;;16.75;45.03
77263;BME280;66373;52.334;4.806;2023-03-01T11:57:43;102718.41;;;16.77;45.08
77263;BME280;66373;52.334;4.806;2023-03-01T12:00:30;102742.06;;;16.96;45.19
77263;BME280;66373;52.334;4.806;2023-03-01T12:03:21;102768.31;;;17.16;45.26
77263;BME280;66373;52.334;4.806;2023-03-01T12:06:15;102708.84;;;16.76;45.21
77263;BME280;66373;52.334;4.806;2023-03-01T12:08:58;102765.81;;;17.24;45.13
77263;BME280;66373;52.334;4.806;2023-03-01T12:11:40;102761.50;;;17.26;44.68
77263;BME280;66373;52.334;4.806;2023-03-01T12:14:26;102665.38;;;16.64;44.66
77263;BME280;66373;52.334;4.806;2023-03-01T12:17:32;102705.63;;;16.95;44.96
77263;BME280;66373;52.334;4.806;2023-03-01T12:20:44;102765.03;;;17.29;44.98
77263;BME280;66373;52.334;4.806;2023-03-01T12:23:56;102710.88;;;16.98;44.76
77263;BME280;66373;52.334;4.806;2023-03-01T12:27:09;102644.56;;;16.64;44.86
77263;BME280;66373;52.334;4.806;2023-03-01T12:30:02;102752.97;;;17.35;44.81
77263;BME280;66373;52.334;4.806;2023-03-01T12:36:42;102749.50;;;17.36;44.58
77263;BME280;66373;52.334;4.806;2023-03-01T12:39:26;102660.50;;;16.90;44.62
77263;BME280;66373;52.334;4.806;2023-03-01T12:42:17;102639.50;;;16.73;44.55
77263;BME280;66373;52.334;4.806;2023-03-01T12:45:15;102739.09;;;17.36;44.53
77263;BME280;66373;52.334;4.806;2023-03-01T12:47:59;102719.91;;;17.26;44.44
77263;BME280;66373;52.334;4.806;2023-03-01T12:50:49;102723.38;;;17.26;44.50
77263;BME280;66373;52.334;4.806;2023-03-01T12:53:23;102626.59;;;16.79;44.04
77263;BME280;66373;52.334;4.806;2023-03-01T12:55:53;102739.22;;;17.48;44.60
77263;BME280;66373;52.334;4.806;2023-03-01T12:58:24;102667.63;;;17.03;44.39
77263;BME280;66373;52.334;4.806;2023-03-01T13:01:10;102624.06;;;16.84;44.29
77263;BME280;66373;52.334;4.806;2023-03-01T13:04:02;102660.78;;;17.11;44.24
77263;BME280;66373;52.334;4.806;2023-03-01T13:06:40;102638.13;;;17.01;44.14
77263;BME280;66373;52.334;4.806;2023-03-01T13:09:29;102638.25;;;17.10;44.34
77263;BME280;66373;52.334;4.806;2023-03-01T13:12:44;102722.00;;;17.59;44.11
77263;BME280;66373;52.334;4.806;2023-03-01T13:15:35;102699.31;;;17.46;44.00
77263;BME280;66373;52.334;4.806;2023-03-01T13:18:04;102719.41;;;17.59;43.97
77263;BME280;66373;52.334;4.806;2023-03-01T13:20:54;102722.06;;;17.63;43.86